首页
METAR-TAF:

METAR-TAF

机场 :

Batajnica, 塞尔维亚

纬度: 44-56-07N, 经度: 020-15-27E, 海拔: 86米

当前天气观测

该预报发布于28分钟前的09:00 UTC
风速8节,风向西南
温度 16°C
湿度 48%
气压 1011 hPa
能见度10公里或以上
1500米以下无云,无积雨云

METAR: LYBT 290900Z 22008KT CAVOK 16/05 Q1011 NOSIG

时间: 11:28 (09:28 UTC)

预报

该预报发布于4小时和28分钟前的05:00 UTC
预报有效从29日的 06点(UTC)到 30日的 06点(UTC)
风速6节,风向西转西南
能见度10公里或以上
1500米以下无云,无积雨云
短暂存在
从 29日的 09点(UTC)到 29日的 16点(UTC)
风速12节,风向西北
几率 30% :
短暂存在
从 29日的 10点(UTC)到 29日的 14点(UTC)
能見度: 5000
散云层高于3000英尺, 塔状积云.
散云层高于4000英尺
阵雨

TAF: LYBT 290500Z 2906/3006 25006KT CAVOK TX16/2913Z TN03/3004Z TEMPO 2909/2916 31012KT PROB30 TEMPO 2910/2914 5000 SHRA SCT030TCU SCT040

超过4000个机场的气象观测和天气预报(METAR&TAF报告)。

可查询的气象台以黄色和红色小点在地图上表示。

将鼠标移到小点上方,可查看气象台名称。

然后点击查看天气观测和预报。

如需切换地图:点击带黑十字的绿色按钮放大地图;点击带横线的绿色按钮缩小地图;或者点击绿色箭头查看邻近地区的地图。


METAR-TAF: